Holton, Michigan
Current Conditions -  °F | °C
As of 9:14 AM on Friday 19 Dec 2014 (Local Time) from KFFX Reporting Station
Clear Clear  
Wind Chill: 20°   Ceiling: Unl
Heat Index: 20°   Visibility: 10mi
Dew Point: 19°   Wind: 0mph
Humidity: 93%   Direction: NA
Pressure: 30.28"   Gusts: NA
Location:  43.41°N, 86.08°W
Report Text: KFFX 191414Z AUTO 00000KT 10SM CLR M06/M07 A3028 RMK AO2 T10651075
Loading
Personal Weather Stations






























Interactive Weather Map New forecast layout! Learn more

10-Day Weather Forecast

Advertisements
Track Severe Weather on mobile